Time,TemperatureF,DewpointF,PressureIn,WindDirection,WindDirectionDegrees,WindSpeedMPH,WindSpeedGustMPH,Humidity,HourlyPrecipIn,Conditions,Clouds,dailyrainin,SoftwareType,DateUTC
2013-08-28 10:24:00,82.0,54.0,29.99,East,81,4.0,9.0,38,0.00,,,0.00,,2013-08-28 17:24:00,
2013-08-28 10:52:00,83.0,53.0,29.99,ENE,66,3.0,10.0,36,0.00,,,0.00,,2013-08-28 17:52:00,
2013-08-28 11:21:00,83.0,54.0,30.00,SSW,213,3.0,12.0,37,0.00,,,0.00,,2013-08-28 18:21:00,
2013-08-28 11:53:00,85.0,55.0,29.99,ESE,106,5.0,11.0,36,0.00,,,0.00,,2013-08-28 18:53:00,
2013-08-28 12:21:00,85.0,54.0,30.01,WNW,285,5.0,11.0,35,0.00,,,0.00,,2013-08-28 19:21:00,
2013-08-28 12:52:00,87.0,54.0,30.01,ESE,108,8.0,17.0,33,0.00,,,0.00,,2013-08-28 19:52:00,
2013-08-28 13:22:00,87.0,54.0,30.00,SW,219,5.0,19.0,33,0.00,,,0.00,,2013-08-28 20:22:00,
2013-08-28 13:52:00,89.0,53.0,29.99,WSW,249,7.0,17.0,29,0.00,,,0.00,,2013-08-28 20:52:00,
2013-08-28 14:22:00,90.0,53.0,29.98,WSW,237,7.0,17.0,29,0.00,,,0.00,,2013-08-28 21:22:00,
2013-08-28 14:57:00,89.0,54.0,29.97,WSW,257,4.0,22.0,30,0.00,,,0.00,,2013-08-28 21:57:00,
2013-08-28 15:25:00,89.0,54.0,29.96,West,270,6.0,16.0,30,0.00,,,0.00,,2013-08-28 22:25:00,
2013-08-28 15:54:00,90.0,52.0,29.96,SW,230,12.0,21.0,28,0.00,,,0.00,,2013-08-28 22:54:00,
2013-08-28 16:22:00,89.0,52.0,29.95,SW,224,9.0,22.0,28,0.00,,,0.00,,2013-08-28 23:22:00,
2013-08-28 16:53:00,90.0,50.0,29.94,SW,233,13.0,21.0,26,0.00,,,0.00,,2013-08-28 23:53:00,
2013-08-28 18:22:00,88.0,49.0,29.94,West,274,8.0,20.0,26,0.00,,,0.00,,2013-08-29 01:22:00,
2013-08-28 18:52:00,85.0,48.0,29.95,West,279,12.0,16.0,28,0.00,,,0.00,,2013-08-29 01:52:00,
2013-08-28 19:22:00,82.0,48.0,29.96,West,266,10.0,17.0,31,0.00,,,0.00,,2013-08-29 02:22:00,
2013-08-28 20:22:00,79.0,49.0,29.98,WSW,254,10.0,17.0,35,0.00,,,0.00,,2013-08-29 03:22:00,
2013-08-28 20:57:00,78.0,49.0,29.98,West,259,13.0,21.0,36,0.00,,,0.00,,2013-08-29 03:57:00,
2013-08-28 21:28:00,76.0,50.0,30.01,WSW,238,16.0,26.0,40,0.00,,,0.00,,2013-08-29 04:28:00,
2013-08-28 21:54:00,76.0,50.0,30.01,WSW,242,15.0,22.0,40,0.00,,,0.00,,2013-08-29 04:54:00,
2013-08-28 22:23:00,76.0,51.0,30.02,SW,234,18.0,25.0,41,0.00,,,0.00,,2013-08-29 05:23:00,
2013-08-28 22:52:00,76.0,51.0,30.03,SW,236,15.0,19.0,41,0.00,,,0.00,,2013-08-29 05:52:00,
2013-08-28 23:21:00,75.0,50.0,30.03,WSW,241,16.0,21.0,42,0.00,,,0.00,,2013-08-29 06:21:00,
2013-08-28 23:52:00,74.0,49.0,30.03,WSW,248,14.0,20.0,42,0.00,,,0.00,,2013-08-29 06:52:00,